Alden, Wisconsin
Current Conditions -  °F | °C
As of 6:40 PM on Wednesday 17 Dec 2014 (Local Time) from KRNH Reporting Station
Clear Clear  
Wind Chill: -10°   Ceiling: Unl
Heat Index: -10°   Visibility: 10mi
Dew Point: -12°   Wind: 0mph
Humidity: 85%   Direction: NA
Pressure: 30.3"   Gusts: NA
Location:  45.1804°N, 92.551°W
Report Text: KRNH 180040Z AUTO 00000KT 10SM CLR M10/M12 A3030 RMK AO2 T11001121
Loading
Personal Weather Stations






























Interactive Weather Map New forecast layout! Learn more

10-Day Weather Forecast

Advertisements
Track Severe Weather on mobile